Time;durP1;ratioP1;P1;durP2;ratioP2;P2;SDS_P1;SDS_P2;PMS_P1;PMS_P2;Temp;Humidity;BMP_temperature;BMP_pressure;BME280_temperature;BME280_humidity;BME280_pressure;Samples;Min_cycle;Max_cycle;Signal;HPM_P1;HPM_P2
2023/05/12 00:00:26;;;;;;;1.27;0.90;;;15.40;55.00;;;;;;4940761;28;20340;-83
2023/05/12 00:02:52;;;;;;;1.10;0.98;;;15.30;54.90;;;;;;4950471;28;20034;-82
2023/05/12 00:05:18;;;;;;;1.38;1.10;;;15.30;55.60;;;;;;4942753;28;20681;-82
2023/05/12 00:07:44;;;;;;;1.20;0.90;;;15.30;55.10;;;;;;4935380;28;20058;-83
2023/05/12 00:10:10;;;;;;;1.00;0.75;;;15.30;55.20;;;;;;4944557;28;20049;-80
2023/05/12 00:12:36;;;;;;;1.73;0.98;;;15.20;55.10;;;;;;4941899;28;20061;-81
2023/05/12 00:15:03;;;;;;;0.70;0.70;;;15.20;55.20;;;;;;4939837;28;20110;-81
2023/05/12 00:17:29;;;;;;;2.10;1.05;;;15.20;55.30;;;;;;4948736;28;20585;-81
2023/05/12 00:19:55;;;;;;;1.23;0.90;;;15.10;55.20;;;;;;4940020;28;20070;-81
2023/05/12 00:22:20;;;;;;;1.02;0.85;;;15.10;55.30;;;;;;4936677;28;20031;-83
2023/05/12 00:24:46;;;;;;;1.88;1.15;;;15.10;55.40;;;;;;4943625;28;20039;-83
2023/05/12 00:27:13;;;;;;;1.42;1.02;;;15.10;55.50;;;;;;4944350;28;20035;-82
2023/05/12 00:29:39;;;;;;;3.42;1.20;;;15.00;55.50;;;;;;4938526;28;20039;-82
2023/05/12 00:32:05;;;;;;;1.55;1.00;;;15.00;55.50;;;;;;4947005;28;20200;-82
2023/05/12 00:34:31;;;;;;;2.13;0.93;;;15.00;55.60;;;;;;4946082;28;20067;-82
2023/05/12 00:36:57;;;;;;;1.00;0.85;;;15.00;55.70;;;;;;4932678;28;20128;-81
2023/05/12 00:39:23;;;;;;;1.20;1.10;;;14.90;55.60;;;;;;4942564;28;20051;-80
2023/05/12 00:41:57;;;;;;;1.20;1.10;;;15.00;56.10;;;;;;4941280;28;20043;-80
2023/05/12 00:44:23;;;;;;;1.25;1.10;;;15.00;56.00;;;;;;4935191;28;20442;-80
2023/05/12 00:46:49;;;;;;;1.30;1.20;;;15.00;56.00;;;;;;4950638;28;20066;-81
2023/05/12 00:49:15;;;;;;;1.30;1.20;;;14.90;55.90;;;;;;4943107;28;20118;-80
2023/05/12 00:51:42;;;;;;;1.42;1.02;;;14.90;55.90;;;;;;4942747;28;20058;-81
2023/05/12 00:54:08;;;;;;;1.30;1.20;;;14.90;56.00;;;;;;4937786;28;20530;-81
2023/05/12 00:56:38;;;;;;;1.52;1.20;;;14.90;56.10;;;;;;4935133;28;20118;-79
2023/05/12 00:59:05;;;;;;;1.50;1.40;;;14.90;56.20;;;;;;4939216;28;20125;-81
2023/05/12 01:01:33;;;;;;;2.20;1.77;;;14.90;56.30;;;;;;4938288;28;20039;-80
2023/05/12 01:04:00;;;;;;;1.88;1.55;;;14.80;56.20;;;;;;4934527;28;20118;-79
2023/05/12 01:06:39;;;;;;;1.30;1.20;;;14.90;56.40;;;;;;4937640;28;20090;-79
2023/05/12 01:09:07;;;;;;;1.27;1.17;;;14.80;56.40;;;;;;4935222;28;20027;-79
2023/05/12 01:11:33;;;;;;;1.40;1.30;;;14.80;56.30;;;;;;4939988;28;20031;-79
2023/05/12 01:13:59;;;;;;;1.55;1.45;;;14.70;56.20;;;;;;4932099;28;20201;-78
2023/05/12 01:16:31;;;;;;;1.50;1.40;;;14.80;56.50;;;;;;4936905;28;20716;-78
2023/05/12 01:18:59;;;;;;;1.67;1.40;;;14.70;56.40;;;;;;4936986;28;20051;-78
2023/05/12 01:21:25;;;;;;;2.65;2.00;;;14.70;56.40;;;;;;4939961;28;20027;-79
2023/05/12 01:23:57;;;;;;;1.83;1.63;;;14.70;56.50;;;;;;4932827;28;20098;-80
2023/05/12 01:26:25;;;;;;;;;;;14.60;56.50;;;;;;4922949;28;20114;-81
2023/05/12 01:28:53;;;;;;;1.67;1.58;;;14.70;56.60;;;;;;4939736;28;19964;-80
2023/05/12 01:31:19;;;;;;;1.85;1.40;;;14.60;56.30;;;;;;4944109;28;20450;-81
2023/05/12 01:33:46;;;;;;;1.98;1.48;;;14.50;56.30;;;;;;4946326;28;20455;-80
2023/05/12 01:36:12;;;;;;;1.73;1.63;;;14.60;56.60;;;;;;4940397;28;20031;-80
2023/05/12 01:38:38;;;;;;;1.88;1.38;;;14.50;56.50;;;;;;4941703;29;20036;-80
2023/05/12 01:41:05;;;;;;;1.75;1.50;;;14.50;56.60;;;;;;4945485;28;20118;-80
2023/05/12 01:43:31;;;;;;;2.00;1.80;;;14.50;56.70;;;;;;4942900;28;20118;-79
2023/05/12 01:45:58;;;;;;;1.77;1.50;;;14.50;56.80;;;;;;4943612;28;20506;-78
2023/05/12 01:48:24;;;;;;;1.88;1.75;;;14.40;56.70;;;;;;4954329;28;20090;-79
2023/05/12 01:50:50;;;;;;;2.20;2.10;;;14.40;56.80;;;;;;4954563;28;20031;-79
2023/05/12 01:53:19;;;;;;;2.08;1.88;;;14.40;56.90;;;;;;4956227;28;20054;-80
2023/05/12 01:55:45;;;;;;;2.35;2.00;;;14.40;57.10;;;;;;4956085;28;20027;-79
2023/05/12 01:58:12;;;;;;;1.67;1.58;;;14.30;56.90;;;;;;4950405;28;20142;-85
2023/05/12 02:00:39;;;;;;;2.03;1.85;;;14.30;57.00;;;;;;4956426;28;20051;-86
2023/05/12 02:03:09;;;;;;;2.30;2.10;;;14.30;57.10;;;;;;4951338;28;20124;-86
2023/05/12 02:05:35;;;;;;;2.50;2.30;;;14.30;57.20;;;;;;4955451;28;20167;-86
2023/05/12 02:08:02;;;;;;;2.45;2.20;;;14.30;57.20;;;;;;4952070;28;20114;-84
2023/05/12 02:10:29;;;;;;;1.90;1.80;;;14.20;57.10;;;;;;4943835;29;20448;-87
2023/05/12 02:12:55;;;;;;;2.42;2.22;;;14.20;57.20;;;;;;4945413;28;20031;-86
2023/05/12 02:15:21;;;;;;;2.63;2.35;;;14.20;57.20;;;;;;4957929;28;20039;-86
2023/05/12 02:17:49;;;;;;;2.92;2.40;;;14.20;57.30;;;;;;4950500;28;20114;-86
2023/05/12 02:20:16;;;;;;;2.45;2.25;;;14.20;57.40;;;;;;4957892;28;20078;-85
2023/05/12 02:22:42;;;;;;;2.67;2.47;;;14.10;57.30;;;;;;4959586;28;20061;-85
2023/05/12 02:25:08;;;;;;;2.85;2.65;;;14.10;57.30;;;;;;4954710;28;20031;-83
2023/05/12 02:27:35;;;;;;;2.65;2.45;;;14.10;57.40;;;;;;4947008;28;20559;-84
2023/05/12 02:30:01;;;;;;;2.85;2.65;;;14.10;57.40;;;;;;4957792;28;20137;-82
2023/05/12 02:32:28;;;;;;;2.92;2.72;;;14.10;57.50;;;;;;4956133;28;20542;-84
2023/05/12 02:34:57;;;;;;;4.18;2.53;;;14.10;57.50;;;;;;4952132;28;20073;-86
2023/05/12 02:37:23;;;;;;;2.53;2.33;;;14.10;57.60;;;;;;4947593;28;20027;-83
2023/05/12 02:39:49;;;;;;;3.38;2.97;;;14.10;57.70;;;;;;4954350;28;20035;-82
2023/05/12 02:42:15;;;;;;;2.97;2.78;;;14.10;57.70;;;;;;4940714;29;20111;-84
2023/05/12 02:44:41;;;;;;;3.20;2.90;;;14.00;57.60;;;;;;4954662;28;20068;-82
2023/05/12 02:47:07;;;;;;;3.47;3.15;;;14.00;57.60;;;;;;4944613;28;20075;-83
2023/05/12 02:49:33;;;;;;;2.95;2.75;;;14.00;57.70;;;;;;4954248;28;20035;-80
2023/05/12 02:51:59;;;;;;;3.50;3.20;;;14.00;57.70;;;;;;4953742;28;20427;-82
2023/05/12 02:54:25;;;;;;;3.47;3.17;;;14.00;57.80;;;;;;4949896;28;20102;-82
2023/05/12 02:56:52;;;;;;;3.65;3.35;;;14.00;57.80;;;;;;4940152;29;20062;-85
2023/05/12 02:59:18;;;;;;;3.53;3.22;;;14.00;57.90;;;;;;4956788;28;20053;-85
2023/05/12 03:01:43;;;;;;;4.68;3.50;;;13.90;57.80;;;;;;4955552;28;20295;-85
2023/05/12 03:04:09;;;;;;;3.20;3.00;;;13.90;57.80;;;;;;4947823;28;20030;-85
2023/05/12 03:06:36;;;;;;;3.88;3.58;;;13.90;57.90;;;;;;4956442;28;20431;-85
2023/05/12 03:09:02;;;;;;;4.18;3.78;;;13.90;58.00;;;;;;4954859;28;20037;-81
2023/05/12 03:11:27;;;;;;;3.75;3.45;;;13.80;57.80;;;;;;4948928;28;20027;-81
2023/05/12 03:13:53;;;;;;;4.35;4.00;;;13.80;57.90;;;;;;4953065;28;20387;-81
2023/05/12 03:16:19;;;;;;;4.10;3.65;;;13.80;58.00;;;;;;4951820;28;20035;-83
2023/05/12 03:18:46;;;;;;;4.22;3.83;;;13.80;58.10;;;;;;4955800;28;20435;-84
2023/05/12 03:21:11;;;;;;;4.43;4.03;;;13.80;58.20;;;;;;4956113;28;20045;-83
2023/05/12 03:23:37;;;;;;;3.90;3.60;;;13.70;58.00;;;;;;4948163;28;20050;-81
2023/05/12 03:26:03;;;;;;;4.72;3.95;;;13.70;58.00;;;;;;4943386;28;20027;-82
2023/05/12 03:28:29;;;;;;;5.65;4.10;;;13.70;58.10;;;;;;4947121;28;20039;-81
2023/05/12 03:30:55;;;;;;;4.88;4.28;;;13.70;58.10;;;;;;4961435;28;20095;-82
2023/05/12 03:33:22;;;;;;;4.38;4.07;;;13.70;58.20;;;;;;4969206;28;20042;-81
2023/05/12 03:35:50;;;;;;;4.15;3.78;;;13.70;58.30;;;;;;4971482;28;20180;-81
2023/05/12 03:38:17;;;;;;;4.63;4.22;;;13.70;58.30;;;;;;4977108;28;20042;-79
2023/05/12 03:40:42;;;;;;;4.35;4.00;;;13.70;58.40;;;;;;4980244;28;20073;-81
2023/05/12 03:43:08;;;;;;;5.10;4.15;;;13.60;58.20;;;;;;4961307;28;20495;-81
2023/05/12 03:45:34;;;;;;;4.35;3.95;;;13.60;58.30;;;;;;4946635;29;20404;-81
2023/05/12 03:48:00;;;;;;;5.05;4.65;;;13.60;58.30;;;;;;4943466;28;20617;-81
2023/05/12 03:50:26;;;;;;;5.60;5.05;;;13.60;58.40;;;;;;4945115;29;20080;-81
2023/05/12 03:52:54;;;;;;;5.38;4.88;;;13.60;59.00;;;;;;4950725;28;20058;-81
2023/05/12 03:55:21;;;;;;;5.30;4.82;;;13.60;58.50;;;;;;4944157;28;20109;-81
2023/05/12 03:57:48;;;;;;;5.85;5.28;;;13.60;58.50;;;;;;4945701;28;20035;-82
2023/05/12 04:00:14;;;;;;;5.90;5.30;;;13.60;58.50;;;;;;4935326;28;20093;-84
2023/05/12 04:02:43;;;;;;;6.25;5.65;;;13.60;58.60;;;;;;4937936;28;20039;-83
2023/05/12 04:05:09;;;;;;;6.60;6.00;;;13.60;58.70;;;;;;4946252;28;20035;-84
2023/05/12 04:07:35;;;;;;;7.53;6.93;;;13.50;58.50;;;;;;4942173;28;20103;-84
2023/05/12 04:10:01;;;;;;;6.93;6.38;;;13.50;58.60;;;;;;4943503;28;20067;-82
2023/05/12 04:12:28;;;;;;;7.18;6.50;;;13.50;58.60;;;;;;4944420;28;20150;-83
2023/05/12 04:14:54;;;;;;;6.80;6.20;;;13.50;58.70;;;;;;4938242;29;20122;-80
2023/05/12 04:17:20;;;;;;;7.95;7.25;;;13.50;58.80;;;;;;4967386;28;20031;-80
2023/05/12 04:19:46;;;;;;;8.50;7.75;;;13.50;58.80;;;;;;4946169;28;20054;-82
2023/05/12 04:22:12;;;;;;;8.35;7.55;;;13.50;58.90;;;;;;4944872;28;20035;-82
2023/05/12 04:24:39;;;;;;;8.88;7.88;;;13.50;58.90;;;;;;4946034;29;20392;-82
2023/05/12 04:27:06;;;;;;;8.63;7.82;;;13.50;59.00;;;;;;4940929;28;20460;-79
2023/05/12 04:29:32;;;;;;;8.35;7.65;;;13.50;59.00;;;;;;4944154;29;20059;-81
2023/05/12 04:31:58;;;;;;;8.55;7.85;;;13.50;59.00;;;;;;4948733;28;20074;-84
2023/05/12 04:34:25;;;;;;;9.55;8.65;;;13.50;59.00;;;;;;4945609;28;20201;-80
2023/05/12 04:36:51;;;;;;;9.63;8.73;;;13.50;59.00;;;;;;4944217;28;20100;-83
2023/05/12 04:39:18;;;;;;;9.27;8.43;;;13.60;59.30;;;;;;4953184;28;20411;-83
2023/05/12 04:41:44;;;;;;;9.48;8.57;;;13.60;59.30;;;;;;4942352;28;20037;-77
2023/05/12 04:44:10;;;;;;;9.45;8.52;;;13.60;59.30;;;;;;4951633;28;20035;-79
2023/05/12 04:46:36;;;;;;;9.80;8.90;;;13.60;59.30;;;;;;4956956;28;20109;-80
2023/05/12 04:49:02;;;;;;;11.85;9.98;;;13.70;59.50;;;;;;4940633;28;20035;-80
2023/05/12 04:51:28;;;;;;;10.77;9.77;;;13.70;59.50;;;;;;4930305;28;20198;-80
2023/05/12 04:53:54;;;;;;;9.93;9.02;;;13.60;59.30;;;;;;4945856;28;20031;-81
2023/05/12 04:56:21;;;;;;;11.70;10.70;;;13.70;60.10;;;;;;4948465;28;20032;-79
2023/05/12 04:58:47;;;;;;;10.88;9.98;;;13.70;59.60;;;;;;4935869;28;20407;-80
2023/05/12 05:01:13;;;;;;;11.35;10.35;;;13.70;59.60;;;;;;4942285;28;20027;-79
2023/05/12 05:03:39;;;;;;;10.77;9.88;;;13.70;60.10;;;;;;4933834;28;20036;-80
2023/05/12 05:06:05;;;;;;;11.27;10.25;;;13.70;59.60;;;;;;4937912;28;20082;-80
2023/05/12 05:08:32;;;;;;;12.25;11.02;;;13.80;59.80;;;;;;4927787;28;20094;-82
2023/05/12 05:10:58;;;;;;;12.00;10.77;;;13.80;59.80;;;;;;4938189;28;20498;-82
2023/05/12 05:13:25;;;;;;;12.20;11.00;;;13.80;59.90;;;;;;4933612;28;20118;-83
2023/05/12 05:15:52;;;;;;;11.38;10.27;;;13.80;59.80;;;;;;4938520;28;20079;-82
2023/05/12 05:18:19;;;;;;;11.75;10.65;;;13.80;59.90;;;;;;4925277;28;20083;-81
2023/05/12 05:20:45;;;;;;;12.65;11.55;;;13.80;59.90;;;;;;4938212;28;20412;-81
2023/05/12 05:23:13;;;;;;;12.18;10.98;;;13.80;60.00;;;;;;4932537;28;20031;-83
2023/05/12 05:25:40;;;;;;;12.50;11.32;;;13.80;60.00;;;;;;4935905;28;20114;-84
2023/05/12 05:28:06;;;;;;;12.45;11.35;;;13.80;60.00;;;;;;4932835;28;20031;-81
2023/05/12 05:30:33;;;;;;;12.95;11.75;;;13.90;60.20;;;;;;4937044;28;20034;-85
2023/05/12 05:33:00;;;;;;;13.25;11.95;;;13.90;60.10;;;;;;4925219;28;20480;-85
2023/05/12 05:35:26;;;;;;;13.65;12.45;;;13.90;60.10;;;;;;4936971;28;20033;-88
2023/05/12 05:37:53;;;;;;;12.80;11.60;;;13.90;60.10;;;;;;4934441;28;20111;-89
2023/05/12 05:40:19;;;;;;;12.45;11.45;;;13.90;60.20;;;;;;4937043;28;20383;-92
2023/05/12 05:42:46;;;;;;;11.57;10.57;;;14.00;60.30;;;;;;4932632;28;20040;-85
2023/05/12 05:45:12;;;;;;;13.25;11.95;;;14.00;60.80;;;;;;4933023;28;20419;-84
2023/05/12 05:47:39;;;;;;;12.57;11.45;;;14.00;60.30;;;;;;4937599;28;20137;-82
2023/05/12 05:50:06;;;;;;;11.52;10.43;;;14.00;60.30;;;;;;4938859;28;20043;-84
2023/05/12 05:52:35;;;;;;;11.50;10.57;;;14.00;60.30;;;;;;4932938;28;20032;-84
2023/05/12 05:55:02;;;;;;;11.50;10.50;;;14.00;60.30;;;;;;4931393;29;20099;-84
2023/05/12 05:57:28;;;;;;;11.20;10.27;;;14.00;60.40;;;;;;4946071;28;20030;-81
2023/05/12 05:59:57;;;;;;;12.45;11.30;;;14.10;60.80;;;;;;4949542;28;20043;-82
2023/05/12 06:02:23;;;;;;;12.32;11.07;;;14.10;60.90;;;;;;4953980;28;20286;-82
2023/05/12 06:04:49;;;;;;;11.85;10.75;;;14.10;61.00;;;;;;4932741;28;20429;-82
2023/05/12 06:07:15;;;;;;;12.13;10.98;;;14.20;61.20;;;;;;4934814;28;20050;-81
2023/05/12 06:09:42;;;;;;;11.45;10.30;;;14.10;61.10;;;;;;4936882;28;20035;-80
2023/05/12 06:12:08;;;;;;;13.10;11.77;;;14.20;61.40;;;;;;4916650;28;20046;-78
2023/05/12 06:14:34;;;;;;;11.60;10.50;;;14.20;61.40;;;;;;4939345;28;20142;-81
2023/05/12 06:16:59;;;;;;;11.20;10.10;;;14.20;61.40;;;;;;4932053;28;20045;-81
2023/05/12 06:19:27;;;;;;;11.45;10.35;;;14.30;61.70;;;;;;4926614;28;20336;-80
2023/05/12 06:21:52;;;;;;;11.55;10.55;;;14.30;61.70;;;;;;4923411;29;20035;-81
2023/05/12 06:24:18;;;;;;;10.77;9.77;;;14.30;61.70;;;;;;4938754;28;20114;-80
2023/05/12 06:26:44;;;;;;;9.82;9.02;;;14.40;61.80;;;;;;4935979;28;20090;-81
2023/05/12 06:29:10;;;;;;;11.68;10.43;;;14.40;61.70;;;;;;4931539;28;20601;-81
2023/05/12 06:31:36;;;;;;;10.43;9.52;;;14.50;61.80;;;;;;4942505;28;20027;-83
2023/05/12 06:34:03;;;;;;;11.02;10.02;;;14.70;62.00;;;;;;4932107;28;20399;-82
2023/05/12 06:36:29;;;;;;;11.23;10.23;;;14.80;62.00;;;;;;4933158;28;20094;-83
2023/05/12 06:38:55;;;;;;;9.40;8.60;;;14.90;62.00;;;;;;4931668;28;20055;-83
2023/05/12 06:41:23;;;;;;;9.50;8.70;;;15.00;61.90;;;;;;4941743;28;20040;-84
2023/05/12 06:43:51;;;;;;;11.60;10.50;;;15.20;62.00;;;;;;4928755;28;20105;-83
2023/05/12 06:46:26;;;;;;;10.02;9.15;;;15.20;61.80;;;;;;4940416;28;20340;-82
2023/05/12 06:48:54;;;;;;;10.20;9.30;;;15.30;61.70;;;;;;4932038;28;20058;-82
2023/05/12 06:51:20;;;;;;;10.13;9.13;;;15.40;61.80;;;;;;4925233;29;20089;-80
2023/05/12 06:53:46;;;;;;;9.95;8.95;;;15.70;62.20;;;;;;4938020;28;20046;-79
2023/05/12 06:56:15;;;;;;;9.52;8.63;;;16.00;62.10;;;;;;4940822;28;20045;-79
2023/05/12 06:58:42;;;;;;;10.00;8.85;;;16.20;61.90;;;;;;4931953;28;20090;-79
2023/05/12 07:01:08;;;;;;;10.35;9.45;;;16.50;62.00;;;;;;4936915;28;20032;-80
2023/05/12 07:03:34;;;;;;;10.52;9.35;;;16.90;61.90;;;;;;4937830;28;20511;-80
2023/05/12 07:06:02;;;;;;;13.65;9.93;;;17.10;61.40;;;;;;4936677;28;20126;-80
2023/05/12 07:08:28;;;;;;;10.38;9.43;;;17.30;61.20;;;;;;4935464;28;20027;-79
2023/05/12 07:10:54;;;;;;;10.15;9.20;;;17.50;61.10;;;;;;4931376;28;20417;-80
2023/05/12 07:13:20;;;;;;;9.32;8.43;;;17.70;60.90;;;;;;4931369;28;20067;-80
2023/05/12 07:15:45;;;;;;;9.95;9.00;;;17.90;60.80;;;;;;4930105;28;20332;-80
2023/05/12 07:18:12;;;;;;;9.63;8.73;;;18.10;60.80;;;;;;4931057;28;20276;-80
2023/05/12 07:20:38;;;;;;;9.85;8.85;;;18.60;61.40;;;;;;4914141;29;20039;-79
2023/05/12 07:23:04;;;;;;;9.30;8.30;;;19.30;61.10;;;;;;4935959;28;20067;-79
2023/05/12 07:25:30;;;;;;;9.60;8.65;;;20.10;60.70;;;;;;4931810;28;20404;-80
2023/05/12 07:27:56;;;;;;;8.07;7.28;;;20.70;60.00;;;;;;4948936;28;20047;-82
2023/05/12 07:30:22;;;;;;;11.35;8.63;;;21.30;59.70;;;;;;4935950;28;20283;-79
2023/05/12 07:32:47;;;;;;;10.48;8.15;;;21.60;58.60;;;;;;4938565;28;20035;-80
2023/05/12 07:35:13;;;;;;;7.80;6.95;;;21.60;58.20;;;;;;4934057;28;20032;-78
2023/05/12 07:37:40;;;;;;;7.82;7.00;;;21.60;58.30;;;;;;4935767;28;20102;-80
2023/05/12 07:40:06;;;;;;;8.75;6.90;;;21.40;58.20;;;;;;4929310;28;20043;-80
2023/05/12 07:42:32;;;;;;;10.18;7.50;;;21.20;58.20;;;;;;4930874;28;20019;-78
2023/05/12 07:44:58;;;;;;;8.68;7.65;;;21.20;58.70;;;;;;4934056;28;20030;-80
2023/05/12 07:47:24;;;;;;;8.70;7.80;;;21.30;58.90;;;;;;4937174;28;20055;-79
2023/05/12 07:49:50;;;;;;;8.77;7.35;;;21.50;58.70;;;;;;4933706;28;20035;-80
2023/05/12 07:52:16;;;;;;;9.07;8.18;;;21.70;58.60;;;;;;4932393;28;20468;-79
2023/05/12 07:54:42;;;;;;;8.45;7.65;;;21.90;58.30;;;;;;4932638;28;20039;-80
2023/05/12 07:57:08;;;;;;;9.35;8.35;;;22.20;58.20;;;;;;4937696;28;20038;-79
2023/05/12 07:59:34;;;;;;;9.40;8.52;;;22.50;57.90;;;;;;4929672;28;20045;-79
2023/05/12 08:01:59;;;;;;;8.63;7.72;;;22.80;57.50;;;;;;4939564;28;20838;-79
2023/05/12 08:04:25;;;;;;;9.57;8.45;;;23.10;57.10;;;;;;4939913;28;20155;-79
2023/05/12 08:06:51;;;;;;;8.43;7.63;;;23.20;56.70;;;;;;4935411;28;20034;-79
2023/05/12 08:09:17;;;;;;;8.73;7.38;;;23.20;56.50;;;;;;4933320;28;20023;-80
2023/05/12 08:11:43;;;;;;;9.45;7.38;;;23.10;56.30;;;;;;4939367;28;20395;-78
2023/05/12 08:14:09;;;;;;;8.38;7.53;;;22.90;56.10;;;;;;4939794;28;20501;-79
2023/05/12 08:16:35;;;;;;;8.65;7.82;;;22.90;56.20;;;;;;4933909;28;20051;-78
2023/05/12 08:19:00;;;;;;;8.68;7.20;;;22.90;56.20;;;;;;4953786;28;20073;-78
2023/05/12 08:21:27;;;;;;;8.60;7.30;;;22.90;56.10;;;;;;4954608;28;20042;-79
2023/05/12 08:23:53;;;;;;;8.05;7.22;;;22.90;55.90;;;;;;4963564;28;20058;-80
2023/05/12 08:26:20;;;;;;;10.23;7.35;;;23.00;56.50;;;;;;4957021;28;20043;-79
2023/05/12 08:28:46;;;;;;;9.43;7.82;;;23.10;55.70;;;;;;4961953;28;20091;-80
2023/05/12 08:31:12;;;;;;;9.75;7.60;;;23.20;55.40;;;;;;4969716;28;20043;-78
2023/05/12 08:33:38;;;;;;;9.98;8.60;;;23.30;55.30;;;;;;4954820;28;20066;-79
2023/05/12 08:36:04;;;;;;;9.13;7.28;;;23.30;55.00;;;;;;4940129;28;20028;-79
2023/05/12 08:38:31;;;;;;;10.60;8.00;;;23.40;54.90;;;;;;4937046;28;20031;-79
2023/05/12 08:41:28;;;;;;;8.27;6.45;;;23.40;54.70;;;;;;4934813;28;20079;-79
2023/05/12 08:43:54;;;;;;;9.43;6.50;;;23.40;54.30;;;;;;4929709;28;20400;-80
2023/05/12 08:46:21;;;;;;;8.43;6.65;;;23.40;54.50;;;;;;4936332;28;20971;-79
2023/05/12 08:48:51;;;;;;;8.27;6.70;;;23.50;54.30;;;;;;4937596;28;20503;-79
2023/05/12 08:51:18;;;;;;;11.25;7.03;;;23.50;54.00;;;;;;4945108;28;20043;-79
2023/05/12 08:53:47;;;;;;;8.77;6.53;;;23.60;53.90;;;;;;4937757;28;20043;-79
2023/05/12 08:56:18;;;;;;;9.77;8.00;;;23.70;53.70;;;;;;4937186;28;20094;-79
2023/05/12 08:58:45;;;;;;;10.20;7.07;;;23.70;53.60;;;;;;4935962;28;20046;-79
2023/05/12 09:01:11;;;;;;;7.95;7.00;;;23.70;53.30;;;;;;4935615;28;20039;-80
2023/05/12 09:03:37;;;;;;;9.45;7.70;;;23.70;53.20;;;;;;4935313;28;20645;-80
2023/05/12 09:06:05;;;;;;;9.93;8.18;;;23.60;52.80;;;;;;4933761;28;20028;-79
2023/05/12 09:08:33;;;;;;;10.05;7.47;;;23.50;52.70;;;;;;4935448;28;20047;-81
2023/05/12 09:11:00;;;;;;;8.52;7.45;;;23.40;52.70;;;;;;4935521;28;20423;-80
2023/05/12 09:13:32;;;;;;;8.18;7.22;;;23.30;52.60;;;;;;4930395;28;20027;-81
2023/05/12 09:16:00;;;;;;;7.43;6.60;;;23.30;53.20;;;;;;4929492;28;20769;-78
2023/05/12 09:18:51;;;;;;;9.85;6.88;;;23.30;52.60;;;;;;4930134;28;20285;-78
2023/05/12 09:21:17;;;;;;;7.53;6.78;;;23.40;52.50;;;;;;4936987;28;20134;-78
2023/05/12 09:23:55;;;;;;;8.27;7.10;;;23.40;52.40;;;;;;4933242;28;20030;-79
2023/05/12 09:26:22;;;;;;;7.97;7.13;;;23.40;52.10;;;;;;4933020;28;20051;-79
2023/05/12 09:28:49;;;;;;;7.95;7.00;;;23.60;52.40;;;;;;4932953;28;20438;-79
2023/05/12 09:31:19;;;;;;;8.70;6.95;;;23.60;52.10;;;;;;4935216;28;20118;-80
2023/05/12 09:33:45;;;;;;;8.00;7.20;;;23.70;52.10;;;;;;4935310;28;20439;-81
2023/05/12 09:36:22;;;;;;;10.57;7.82;;;23.80;52.00;;;;;;4936898;28;20039;-80
2023/05/12 09:39:03;;;;;;;11.13;7.63;;;23.90;51.90;;;;;;4934993;28;20035;-80
2023/05/12 09:41:30;;;;;;;7.82;7.00;;;24.10;51.90;;;;;;4933140;28;20428;-80
2023/05/12 09:43:58;;;;;;;12.05;8.05;;;24.30;52.10;;;;;;4929803;28;20063;-81
2023/05/12 09:46:24;;;;;;;10.60;7.10;;;24.60;52.20;;;;;;4934669;28;20040;-81
2023/05/12 09:48:55;;;;;;;9.18;7.18;;;24.90;52.30;;;;;;4936590;28;20061;-81
2023/05/12 09:51:20;;;;;;;7.07;6.43;;;25.10;52.00;;;;;;4934030;29;20114;-80
2023/05/12 09:53:46;;;;;;;7.85;7.13;;;25.20;51.90;;;;;;4936363;28;20581;-81
2023/05/12 09:56:13;;;;;;;7.45;6.75;;;25.20;51.70;;;;;;4931446;28;20365;-85
2023/05/12 09:58:45;;;;;;;9.07;7.43;;;25.20;51.40;;;;;;4939527;28;20054;-86
2023/05/12 10:01:12;;;;;;;7.07;6.38;;;25.20;51.20;;;;;;4934684;29;20044;-84
2023/05/12 10:03:44;;;;;;;11.38;7.15;;;25.40;51.30;;;;;;4935976;28;20102;-84
2023/05/12 10:06:27;;;;;;;8.07;6.53;;;25.50;51.00;;;;;;4926751;28;20075;-83
2023/05/12 10:08:58;;;;;;;9.13;6.60;;;25.50;50.60;;;;;;4933762;28;20043;-82
2023/05/12 10:11:25;;;;;;;9.15;7.35;;;25.50;50.70;;;;;;4938303;28;20351;-83
2023/05/12 10:13:51;;;;;;;8.55;6.70;;;25.50;50.60;;;;;;4930574;28;20396;-83
2023/05/12 10:16:18;;;;;;;9.43;7.53;;;25.50;50.50;;;;;;4941131;28;20110;-84
2023/05/12 10:18:45;;;;;;;9.05;7.07;;;25.50;50.30;;;;;;4946299;28;20498;-83
2023/05/12 10:21:12;;;;;;;8.50;6.97;;;25.50;50.20;;;;;;4935894;28;20078;-83
2023/05/12 10:23:42;;;;;;;9.25;7.43;;;25.40;50.10;;;;;;4951853;28;20122;-84
2023/05/12 10:26:09;;;;;;;10.23;7.32;;;25.30;50.20;;;;;;4946180;28;20175;-85
2023/05/12 10:28:35;;;;;;;8.48;7.57;;;25.30;50.20;;;;;;4941827;28;20057;-85
2023/05/12 10:31:03;;;;;;;7.88;7.00;;;25.40;50.20;;;;;;4945483;28;20097;-83
2023/05/12 10:33:29;;;;;;;8.88;6.88;;;25.60;50.10;;;;;;4943501;28;20061;-85
2023/05/12 10:35:56;;;;;;;11.20;7.85;;;25.80;49.90;;;;;;4939221;28;20253;-82
2023/05/12 10:38:21;;;;;;;8.10;7.22;;;26.00;49.60;;;;;;4940719;28;20050;-87
2023/05/12 10:40:57;;;;;;;9.43;7.53;;;26.00;49.30;;;;;;4933862;28;20032;-81
2023/05/12 10:43:25;;;;;;;7.82;7.03;;;26.10;49.20;;;;;;4936924;28;20103;-82
2023/05/12 10:46:15;;;;;;;9.88;7.22;;;26.10;49.30;;;;;;4936164;28;20106;-80
2023/05/12 10:49:03;;;;;;;9.80;7.72;;;26.10;49.00;;;;;;4937017;28;20074;-84
2023/05/12 10:51:44;;;;;;;8.85;7.65;;;26.10;49.00;;;;;;4935169;28;20122;-84
2023/05/12 10:54:18;;;;;;;6.72;6.05;;;26.20;49.20;;;;;;4940256;28;20443;-83
2023/05/12 10:56:44;;;;;;;9.48;6.55;;;26.40;49.00;;;;;;4940099;28;20097;-84
2023/05/12 10:59:13;;;;;;;8.02;7.03;;;26.60;48.70;;;;;;4953486;28;20114;-83
2023/05/12 11:01:40;;;;;;;6.75;6.00;;;26.80;48.50;;;;;;4937491;28;20067;-85
2023/05/12 11:04:14;;;;;;;7.10;5.75;;;27.00;48.30;;;;;;4936993;28;20110;-84
2023/05/12 11:06:41;;;;;;;8.55;6.65;;;27.20;48.00;;;;;;4941289;28;20085;-84
2023/05/12 11:09:10;;;;;;;7.00;6.05;;;27.30;47.80;;;;;;4935845;28;20530;-84
2023/05/12 11:11:36;;;;;;;6.85;6.15;;;27.40;47.70;;;;;;4918016;28;20558;-85
2023/05/12 11:14:02;;;;;;;7.72;6.13;;;27.70;47.60;;;;;;4925666;28;20767;-85
2023/05/12 11:16:28;;;;;;;6.97;6.05;;;27.80;47.20;;;;;;4912798;28;20046;-84
2023/05/12 11:19:02;;;;;;;8.23;6.40;;;28.00;47.10;;;;;;4937957;28;20050;-84
2023/05/12 11:21:29;;;;;;;6.72;5.57;;;28.20;46.80;;;;;;4935552;28;20175;-85
2023/05/12 11:23:56;;;;;;;9.32;6.38;;;28.40;46.60;;;;;;4930161;28;20501;-86
2023/05/12 11:26:22;;;;;;;7.25;5.50;;;28.70;46.40;;;;;;4923178;28;20035;-87
2023/05/12 11:28:47;;;;;;;6.47;5.75;;;28.90;46.20;;;;;;4928790;28;20498;-84
2023/05/12 11:31:20;;;;;;;15.70;12.15;;;29.10;46.00;;;;;;4943852;28;20447;-82
2023/05/12 11:33:47;;;;;;;11.35;9.32;;;29.20;45.70;;;;;;4935512;28;20036;-83
2023/05/12 11:36:15;;;;;;;9.20;7.90;;;29.30;45.70;;;;;;4938803;28;20202;-84
2023/05/12 11:38:49;;;;;;;8.20;7.40;;;29.30;45.50;;;;;;4938765;28;20047;-80
2023/05/12 11:41:25;;;;;;;8.40;7.60;;;29.40;45.10;;;;;;4933715;29;20041;-82
2023/05/12 11:43:51;;;;;;;8.70;7.63;;;29.50;45.00;;;;;;4936429;28;20058;-84
2023/05/12 11:46:27;;;;;;;9.43;7.72;;;29.60;45.00;;;;;;4922791;28;20167;-83
2023/05/12 11:48:58;;;;;;;9.10;7.53;;;29.70;44.60;;;;;;4930011;28;20055;-84
2023/05/12 11:51:25;;;;;;;7.35;6.63;;;29.80;44.60;;;;;;4929247;29;20035;-85
2023/05/12 11:53:52;;;;;;;8.25;6.45;;;29.90;44.40;;;;;;4925901;28;20051;-83
2023/05/12 11:56:23;;;;;;;8.80;7.10;;;30.00;44.10;;;;;;4936785;28;20035;-84
2023/05/12 11:58:56;;;;;;;9.13;7.05;;;30.00;43.90;;;;;;4928245;28;20400;-84
2023/05/12 12:01:23;;;;;;;10.73;6.80;;;30.10;43.70;;;;;;4927638;28;20032;-84
2023/05/12 12:03:51;;;;;;;7.55;6.32;;;30.20;43.70;;;;;;4930935;28;20065;-84
2023/05/12 12:06:18;;;;;;;6.88;6.15;;;30.20;43.40;;;;;;4928347;28;20043;-83
2023/05/12 12:08:54;;;;;;;7.65;6.28;;;30.20;43.20;;;;;;4932980;28;20030;-84
2023/05/12 12:11:22;;;;;;;8.73;6.40;;;30.10;43.00;;;;;;4933452;29;20534;-84
2023/05/12 12:13:55;;;;;;;6.43;5.82;;;29.90;43.20;;;;;;4936323;28;20039;-84
2023/05/12 12:16:25;;;;;;;9.38;5.97;;;29.70;43.20;;;;;;4934020;28;20553;-83
2023/05/12 12:18:51;;;;;;;7.95;6.43;;;29.60;43.50;;;;;;4937470;28;20055;-83
2023/05/12 12:21:18;;;;;;;6.60;5.72;;;29.50;43.70;;;;;;4935354;28;20042;-84
2023/05/12 12:23:44;;;;;;;7.82;6.03;;;29.50;43.70;;;;;;4932519;28;20483;-85
2023/05/12 12:26:10;;;;;;;6.50;5.88;;;29.40;43.70;;;;;;4931811;28;20035;-80
2023/05/12 12:28:36;;;;;;;6.45;5.65;;;29.40;43.70;;;;;;4932314;28;20607;-81
2023/05/12 12:31:01;;;;;;;6.25;5.63;;;29.40;43.80;;;;;;4928890;28;20045;-79
2023/05/12 12:33:27;;;;;;;7.05;5.75;;;29.50;43.60;;;;;;4934083;28;20074;-80
2023/05/12 12:35:53;;;;;;;6.32;5.72;;;29.60;43.40;;;;;;4945167;28;20447;-81
2023/05/12 12:38:19;;;;;;;5.70;5.10;;;29.70;43.30;;;;;;4945961;28;20042;-82
2023/05/12 12:40:45;;;;;;;5.60;5.10;;;29.70;43.20;;;;;;4936315;28;20459;-80
2023/05/12 12:43:12;;;;;;;5.65;5.00;;;29.60;43.10;;;;;;4934573;28;20034;-80